Etusivu
METAR-TAF:

METAR-TAF

Lentoasemat :

Münster-Osnabrück, Saksa

Leveyspiiri: 52-08N, Pituuspiiri: 007-42E, korkeus merenpinnasta: 48 m

Tämänhetkinen sää

Tämä raportti tehtiin 39 minuuttia sitten, kello 03.50 UTC
Tuuli 2 kn eri suunnista
Lämpötila -1°C
Kosteus 93%
Ilmanpaine 1025 hPa
Näkyvyys 10 km tai enemmän
ei pilviä alle 1500 m:ssä eikä cumulonimbus-pilviä

METAR: EDDG 190350Z VRB02KT CAVOK M01/M02 Q1025 NOSIG

Aika: 05:29 (04:29 UTC)

Sääennuste

Tämä raportti tehtiin 5 tuntia ja 29 minuuttia sitten, kello 23.00 UTC
Ennuste voimassa 19. päivästä klo 00 UTC - 19. päivään klo 24 UTC
Tuuli 4 kn lännestä/lounaasta
Näkyvyys 10 km tai enemmän
Muutamia pilviä 3000 ft:n korkeudessa
Tulossa
19. päivästä klo 17 UTC - 19. päivään klo 20 UTC
Tuuli 5 kn etelästä/kaakosta

TAF: EDDG 182300Z 1900/1924 25004KT 9999 FEW030 BECMG 1917/1920 16005KT

Säähavainnot ja -ennusteet yli 4000 lentoasemalta (METAR- ja TAF-raportit).

Käytössä olevat sääasemat on merkitty karttaan keltaisilla ja punaisilla pisteillä.

Aseta hiiri pisteen päälle nähdäksesi sääaseman nimen.

Klikkaa sitten nähdäksesi säähavainnot ja -ennusteet.

Kartan vaihtaminen: klikkaa mustalla rastilla varustettuja vihreitä pisteitä, niin voit zoomata sisään; viivalla varustettua vihreää pistettä, niin voit zoomata ulos tai vihreitä nuolia, niin pääset viereisille kartoille.


METAR-TAF: